Mistral — TCCH — position and weather

sailwx.info

Track history (hours):
 
Tides and Currents Weather Stations Pressure Air Temp Water Temp Dewpoint Dewpoint Depression Visibility Wind Speed Wind Dir Waves Ship Positions

Mistral

Last reported at 2014-Dec-17 10:33 UTC. Time now 2014-Dec-19 03:55 UTC.
Position N 41°18' E 029°35'.

; draft 4.6 m.

Type: Cargo ship. MMSI: 271000615.

Date/timePositionNaut miles runAvg speedWind from/ knotsBaromVisibWave heightAir tempDewpointWater temp
2014-Dec-17 10:33N 41°18' E 029°35'14 9.6
2014-Dec-17 09:08N 41°18' E 029°17'23 8.5
2014-Dec-17 06:23N 40°59' E 028°59'4 4.2
2014-Dec-17 05:31N 40°56' E 028°56'3 2.0
2014-Dec-17 04:10N 40°59' E 028°56'0 0.0
2014-Dec-17 03:28N 40°59' E 028°56'0 0.0
2014-Dec-17 02:28N 40°59' E 028°56'0 0.0
2014-Dec-17 01:22N 40°59' E 028°56'0 0.0
2014-Dec-17 00:22N 40°59' E 028°56'0 0.0
2014-Dec-16 23:25N 40°59' E 028°56'0 0.0
2014-Dec-16 21:13N 40°59' E 028°56'0 0.0
2014-Dec-16 19:19N 40°59' E 028°56'0 0.0
2014-Dec-16 18:31N 40°59' E 028°56'0 0.0
2014-Dec-16 17:31N 40°59' E 028°56'0 0.0
2014-Dec-16 16:25N 40°59' E 028°56'0 0.0
2014-Dec-16 15:31N 40°59' E 028°56'0 0.0
2014-Dec-16 14:07N 40°59' E 028°56'0 0.1
2014-Dec-16 13:31N 40°59' E 028°56'0 0.1
2014-Dec-16 12:27N 40°59' E 028°56'0 0.0
2014-Dec-16 11:27N 40°59' E 028°56'0 0.0
2014-Dec-16 10:27N 40°59' E 028°56'0 0.0
2014-Dec-16 08:33N 40°59' E 028°56'0 0.1
2014-Dec-16 07:27N 40°59' E 028°56'0 0.0
2014-Dec-16 06:21N 40°59' E 028°56'  
Track history (hours):
 
Tides and Currents Weather Stations Pressure Air Temp Water Temp Dewpoint Dewpoint Depression Visibility Wind Speed Wind Dir Waves Ship Positions

Mistral

Last reported at 2014-Dec-17 10:33 UTC. Time now 2014-Dec-19 03:55 UTC.
Position N 41°18' E 029°35'.

; draft 4.6 m.

Type: Cargo ship. MMSI: 271000615.

Date/timePositionNaut miles runAvg speedWind from/ knotsBaromVisibWave heightAir tempDewpointWater temp
2014-Dec-17 10:33N 41°18' E 029°35'14 9.6
2014-Dec-17 09:08N 41°18' E 029°17'23 8.5
2014-Dec-17 06:23N 40°59' E 028°59'4 4.2
2014-Dec-17 05:31N 40°56' E 028°56'3 2.0
2014-Dec-17 04:10N 40°59' E 028°56'0 0.0
2014-Dec-17 03:28N 40°59' E 028°56'0 0.0
2014-Dec-17 02:28N 40°59' E 028°56'0 0.0
2014-Dec-17 01:22N 40°59' E 028°56'0 0.0
2014-Dec-17 00:22N 40°59' E 028°56'0 0.0
2014-Dec-16 23:25N 40°59' E 028°56'0 0.0
2014-Dec-16 21:13N 40°59' E 028°56'0 0.0
2014-Dec-16 19:19N 40°59' E 028°56'0 0.0
2014-Dec-16 18:31N 40°59' E 028°56'0 0.0
2014-Dec-16 17:31N 40°59' E 028°56'0 0.0
2014-Dec-16 16:25N 40°59' E 028°56'0 0.0
2014-Dec-16 15:31N 40°59' E 028°56'0 0.0
2014-Dec-16 14:07N 40°59' E 028°56'0 0.1
2014-Dec-16 13:31N 40°59' E 028°56'0 0.1
2014-Dec-16 12:27N 40°59' E 028°56'0 0.0
2014-Dec-16 11:27N 40°59' E 028°56'0 0.0
2014-Dec-16 10:27N 40°59' E 028°56'0 0.0
2014-Dec-16 08:33N 40°59' E 028°56'0 0.1
2014-Dec-16 07:27N 40°59' E 028°56'0 0.0
2014-Dec-16 06:21N 40°59' E 028°56'  

Dump ship's entire track history